Time;durP1;ratioP1;P1;durP2;ratioP2;P2;SDS_P1;SDS_P2;PMS_P1;PMS_P2;Temp;Humidity;BMP_temperature;BMP_pressure;BME280_temperature;BME280_humidity;BME280_pressure;Samples;Min_cycle;Max_cycle;Signal;HPM_P1;HPM_P2
2021/05/26 00:00:57;;;;;;;5.97;5.43;;;10.30;99.90;;;;;;4997345;28;20188;-71
2021/05/26 00:03:26;;;;;;;6.37;5.87;;;10.30;99.90;;;;;;4996816;28;20725;-71
2021/05/26 00:05:52;;;;;;;6.60;6.10;;;10.40;99.90;;;;;;4995368;28;20616;-70
2021/05/26 00:08:26;;;;;;;7.23;6.13;;;10.30;99.90;;;;;;4998101;28;21321;-71
2021/05/26 00:10:53;;;;;;;6.30;5.70;;;10.30;99.90;;;;;;5003324;28;20204;-71
2021/05/26 00:13:18;;;;;;;6.17;5.67;;;10.30;99.90;;;;;;4996810;28;21211;-71
2021/05/26 00:15:48;;;;;;;6.50;5.97;;;10.20;99.90;;;;;;5001317;28;20697;-71
2021/05/26 00:18:14;;;;;;;6.10;5.60;;;10.30;99.90;;;;;;4997013;28;20365;-71
2021/05/26 00:20:40;;;;;;;6.50;6.00;;;10.30;99.90;;;;;;4991486;28;20706;-71
2021/05/26 00:23:06;;;;;;;6.80;5.40;;;10.30;99.90;;;;;;4995829;28;20763;-71
2021/05/26 00:25:31;;;;;;;6.20;5.70;;;10.30;99.90;;;;;;5004046;28;20644;-71
2021/05/26 00:27:58;;;;;;;5.63;5.23;;;10.30;99.90;;;;;;4992539;28;20288;-71
2021/05/26 00:30:29;;;;;;;6.27;5.77;;;10.30;99.90;;;;;;4992638;28;20216;-71
2021/05/26 00:32:55;;;;;;;6.10;5.57;;;10.30;99.90;;;;;;4997584;28;20635;-71
2021/05/26 00:35:21;;;;;;;5.87;5.37;;;10.30;99.90;;;;;;4998413;28;20650;-71
2021/05/26 00:37:46;;;;;;;5.87;5.40;;;10.30;99.90;;;;;;4992199;28;21185;-71
2021/05/26 00:40:15;;;;;;;5.70;5.30;;;10.30;99.90;;;;;;4987080;28;20231;-71
2021/05/26 00:42:41;;;;;;;7.00;6.30;;;10.30;99.90;;;;;;5000842;28;20197;-71
2021/05/26 00:45:07;;;;;;;6.77;6.17;;;10.30;99.90;;;;;;5013169;28;20654;-71
2021/05/26 00:47:43;;;;;;;7.07;6.47;;;10.30;99.90;;;;;;4993418;28;20196;-71
2021/05/26 00:50:20;;;;;;;7.60;6.80;;;10.30;99.90;;;;;;5006573;28;20716;-70
2021/05/26 00:52:47;;;;;;;8.20;7.40;;;10.20;99.90;;;;;;5001509;28;20829;-71
2021/05/26 00:55:16;;;;;;;7.03;6.43;;;10.20;99.90;;;;;;5003806;28;20679;-71
2021/05/26 00:57:42;;;;;;;8.30;7.50;;;10.30;99.90;;;;;;5003794;28;21219;-71
2021/05/26 01:00:11;;;;;;;7.23;6.63;;;10.30;99.90;;;;;;5002994;28;20701;-71
2021/05/26 01:02:38;;;;;;;8.13;7.37;;;10.30;99.90;;;;;;5003015;28;20209;-72
2021/05/26 01:05:08;;;;;;;8.53;7.10;;;10.30;99.90;;;;;;4993529;28;20739;-71
2021/05/26 01:07:38;;;;;;;8.77;7.87;;;10.30;99.90;;;;;;5000094;28;20647;-71
2021/05/26 01:10:04;;;;;;;8.17;7.43;;;10.30;99.90;;;;;;5000470;28;20664;-71
2021/05/26 01:12:30;;;;;;;8.23;7.53;;;10.30;99.90;;;;;;5013591;28;20604;-72
2021/05/26 01:14:56;;;;;;;8.20;7.50;;;10.30;99.90;;;;;;5020027;28;20640;-71
2021/05/26 01:17:21;;;;;;;7.70;7.00;;;10.30;99.90;;;;;;5002565;28;21284;-71
2021/05/26 01:19:47;;;;;;;8.60;7.90;;;10.30;99.90;;;;;;5000409;28;20790;-71
2021/05/26 01:22:14;;;;;;;8.37;7.57;;;10.40;99.90;;;;;;4998793;28;20193;-71
2021/05/26 01:24:40;;;;;;;8.27;7.57;;;10.40;99.90;;;;;;4999396;28;20339;-71
2021/05/26 01:27:06;;;;;;;8.57;7.70;;;10.40;99.90;;;;;;4996703;28;21127;-71
2021/05/26 01:29:32;;;;;;;8.70;8.00;;;10.40;99.90;;;;;;4998019;28;20220;-71
2021/05/26 01:31:58;;;;;;;8.73;8.03;;;10.30;99.90;;;;;;4997055;28;20264;-71
2021/05/26 01:34:24;;;;;;;10.40;9.40;;;10.40;99.90;;;;;;5005639;28;20662;-71
2021/05/26 01:36:50;;;;;;;9.10;8.30;;;10.30;99.90;;;;;;4999341;28;20738;-71
2021/05/26 01:39:17;;;;;;;9.43;8.63;;;10.30;99.90;;;;;;5001432;28;20247;-71
2021/05/26 01:41:43;;;;;;;10.43;9.43;;;10.40;99.90;;;;;;4999269;28;20620;-71
2021/05/26 01:44:09;;;;;;;10.20;9.30;;;10.30;99.90;;;;;;5010240;28;20647;-71
2021/05/26 01:46:38;;;;;;;10.03;9.13;;;10.40;99.90;;;;;;4997851;28;20607;-71
2021/05/26 01:49:06;;;;;;;11.43;10.33;;;10.40;99.90;;;;;;4995947;28;20235;-71
2021/05/26 01:51:33;;;;;;;12.37;11.27;;;10.40;99.90;;;;;;4999354;28;20658;-71
2021/05/26 01:53:59;;;;;;;11.53;10.43;;;10.40;99.90;;;;;;5012234;28;21309;-70
2021/05/26 01:56:27;;;;;;;12.00;10.90;;;10.40;99.90;;;;;;5002662;28;20631;-71
2021/05/26 01:58:58;;;;;;;12.10;11.00;;;10.40;99.90;;;;;;4998414;28;20209;-71
2021/05/26 02:01:25;;;;;;;13.10;11.90;;;10.40;99.90;;;;;;5003105;28;20661;-71
2021/05/26 02:03:51;;;;;;;13.73;12.33;;;10.40;99.90;;;;;;4996634;28;21039;-71
2021/05/26 02:06:18;;;;;;;13.40;12.10;;;10.40;99.90;;;;;;4997617;28;20619;-71
2021/05/26 02:08:46;;;;;;;13.80;12.40;;;10.40;99.90;;;;;;4996390;28;21200;-71
2021/05/26 02:14:05;;;;;;;12.53;11.23;;;10.40;99.90;;;;;;4996324;28;20654;-72
2021/05/26 02:16:31;;;;;;;12.83;11.63;;;10.40;99.90;;;;;;5002757;28;21865;-71
2021/05/26 02:18:56;;;;;;;13.67;12.37;;;10.40;99.90;;;;;;4997382;28;20743;-71
2021/05/26 02:21:24;;;;;;;13.87;11.77;;;10.40;99.90;;;;;;4996311;28;20610;-71
2021/05/26 02:23:50;;;;;;;13.57;12.17;;;10.40;99.90;;;;;;4995474;28;20217;-71
2021/05/26 02:26:16;;;;;;;14.00;12.60;;;10.40;99.90;;;;;;4999484;28;20619;-71
2021/05/26 02:28:42;;;;;;;14.30;12.90;;;10.40;99.90;;;;;;4999578;28;20710;-71
2021/05/26 02:31:08;;;;;;;13.57;12.27;;;10.40;99.90;;;;;;4994618;28;20320;-71
2021/05/26 02:33:34;;;;;;;14.00;12.47;;;10.40;99.90;;;;;;4998525;28;20659;-71
2021/05/26 02:36:01;;;;;;;16.50;13.73;;;10.40;99.90;;;;;;4994592;28;21269;-71
2021/05/26 02:38:30;;;;;;;14.13;12.67;;;10.40;99.90;;;;;;4990624;28;20658;-71
2021/05/26 02:40:55;;;;;;;14.87;13.37;;;10.40;99.90;;;;;;4993808;28;20627;-71
2021/05/26 02:43:21;;;;;;;13.87;12.47;;;10.30;99.90;;;;;;4997304;28;20640;-70
2021/05/26 02:45:47;;;;;;;13.77;12.37;;;10.40;99.90;;;;;;4997180;28;20296;-70
2021/05/26 02:48:12;;;;;;;16.40;12.97;;;10.40;99.90;;;;;;4999986;28;20659;-71
2021/05/26 02:50:38;;;;;;;14.33;12.83;;;10.40;99.90;;;;;;4998380;28;20217;-71
2021/05/26 02:53:04;;;;;;;14.17;12.70;;;10.40;99.90;;;;;;4997414;28;20357;-71
2021/05/26 02:55:32;;;;;;;14.07;12.63;;;10.40;99.90;;;;;;4997560;28;20283;-71
2021/05/26 02:57:58;;;;;;;13.83;12.53;;;10.50;99.90;;;;;;5000646;28;20219;-71
2021/05/26 03:00:25;;;;;;;13.70;12.30;;;10.50;99.90;;;;;;4992030;28;21962;-71
2021/05/26 03:02:51;;;;;;;12.60;11.40;;;10.50;99.90;;;;;;4995778;28;21188;-71
2021/05/26 03:05:19;;;;;;;12.80;11.50;;;10.40;99.90;;;;;;4994003;28;20734;-71
2021/05/26 03:07:45;;;;;;;13.70;11.93;;;10.50;99.90;;;;;;4997143;28;20710;-71
2021/05/26 03:10:16;;;;;;;11.47;10.37;;;10.50;99.90;;;;;;4997157;28;20646;-71
2021/05/26 03:12:42;;;;;;;12.27;10.50;;;10.40;99.90;;;;;;4991920;28;20715;-71
2021/05/26 03:15:14;;;;;;;11.67;10.47;;;10.40;99.90;;;;;;4994760;28;20690;-71
2021/05/26 03:17:40;;;;;;;11.33;10.23;;;10.40;99.90;;;;;;4998246;28;20238;-71
2021/05/26 03:20:08;;;;;;;11.93;10.73;;;10.50;99.90;;;;;;4997103;28;20777;-71
2021/05/26 03:22:36;;;;;;;11.20;10.00;;;10.50;99.90;;;;;;4992513;28;20608;-71
2021/05/26 03:25:01;;;;;;;11.23;10.13;;;10.40;99.90;;;;;;4998210;28;20663;-71
2021/05/26 03:27:34;;;;;;;11.47;10.27;;;10.50;99.90;;;;;;4991608;28;20888;-71
2021/05/26 03:30:06;;;;;;;11.40;10.30;;;10.50;99.90;;;;;;4989504;28;20282;-71
2021/05/26 03:32:31;;;;;;;11.43;10.23;;;10.40;99.90;;;;;;4987231;28;20608;-71
2021/05/26 03:34:57;;;;;;;11.37;10.27;;;10.40;99.90;;;;;;4986230;28;20628;-71
2021/05/26 03:37:23;;;;;;;13.40;10.10;;;10.40;99.90;;;;;;4991680;28;22224;-71
2021/05/26 03:39:48;;;;;;;12.87;11.53;;;10.40;99.90;;;;;;4997382;28;20212;-71
2021/05/26 03:42:16;;;;;;;11.83;10.70;;;10.40;99.90;;;;;;4992820;28;20185;-71
2021/05/26 03:44:45;;;;;;;12.10;10.67;;;10.40;99.90;;;;;;4991762;28;20719;-71
2021/05/26 03:47:10;;;;;;;11.50;10.33;;;10.40;99.90;;;;;;4988987;28;21626;-71
2021/05/26 03:49:36;;;;;;;11.70;10.60;;;10.40;99.90;;;;;;4996764;28;20662;-71
2021/05/26 03:52:02;;;;;;;12.00;10.80;;;10.50;99.90;;;;;;4993771;28;20212;-71
2021/05/26 03:54:27;;;;;;;14.37;11.33;;;10.40;99.90;;;;;;4998814;28;20320;-71
2021/05/26 03:56:53;;;;;;;12.70;11.50;;;10.40;99.90;;;;;;4993516;28;20199;-71
2021/05/26 03:59:19;;;;;;;13.20;11.50;;;10.40;99.90;;;;;;4992758;28;20825;-71
2021/05/26 04:01:44;;;;;;;13.70;11.30;;;10.40;99.90;;;;;;4991183;28;21274;-71
2021/05/26 04:04:10;;;;;;;12.70;11.40;;;10.40;99.90;;;;;;4992784;28;20224;-71
2021/05/26 04:06:36;;;;;;;12.07;10.87;;;10.40;99.90;;;;;;4998704;28;20909;-71
2021/05/26 04:09:03;;;;;;;13.20;10.87;;;10.50;99.90;;;;;;5006098;28;20213;-71
2021/05/26 04:11:30;;;;;;;12.43;10.80;;;10.50;99.90;;;;;;4999552;28;20252;-71
2021/05/26 04:13:56;;;;;;;13.63;11.23;;;10.50;99.90;;;;;;4994088;28;20651;-71
2021/05/26 04:16:21;;;;;;;13.17;11.10;;;10.50;99.90;;;;;;4995881;28;20690;-71
2021/05/26 04:18:47;;;;;;;13.00;10.97;;;10.50;99.90;;;;;;4987624;28;20229;-71
2021/05/26 04:21:14;;;;;;;13.50;12.10;;;10.50;99.90;;;;;;4994269;28;20344;-71
2021/05/26 04:23:41;;;;;;;12.90;11.60;;;10.50;99.90;;;;;;4998068;28;20235;-71
2021/05/26 04:26:07;;;;;;;12.93;11.13;;;10.50;99.90;;;;;;4998806;28;20714;-71
2021/05/26 04:28:33;;;;;;;12.13;11.03;;;10.50;99.90;;;;;;4998321;28;20651;-71
2021/05/26 04:30:58;;;;;;;12.27;11.00;;;10.50;99.90;;;;;;4997843;28;20221;-71
2021/05/26 04:33:24;;;;;;;13.80;11.30;;;10.50;99.90;;;;;;4999484;28;20216;-71
2021/05/26 04:35:50;;;;;;;12.50;11.23;;;10.50;99.90;;;;;;4998148;28;20205;-71
2021/05/26 04:38:16;;;;;;;12.33;10.50;;;10.50;99.90;;;;;;5001453;28;20787;-71
2021/05/26 04:40:46;;;;;;;13.17;11.23;;;10.50;99.90;;;;;;4996009;28;21661;-71
2021/05/26 04:43:11;;;;;;;11.90;10.77;;;10.50;99.90;;;;;;4997543;28;20650;-71
2021/05/26 04:45:37;;;;;;;12.33;11.00;;;10.50;99.90;;;;;;4996391;28;21197;-71
2021/05/26 04:48:03;;;;;;;13.23;11.33;;;10.60;99.90;;;;;;4997413;28;20193;-71
2021/05/26 04:50:31;;;;;;;12.30;9.80;;;10.60;99.90;;;;;;5003343;28;20216;-71
2021/05/26 04:52:59;;;;;;;12.53;11.33;;;10.60;99.90;;;;;;4990125;28;20628;-71
2021/05/26 04:55:25;;;;;;;12.80;9.77;;;10.60;99.90;;;;;;5004205;28;20689;-71
2021/05/26 04:57:58;;;;;;;11.83;10.73;;;10.60;99.90;;;;;;5000394;28;20620;-71
2021/05/26 05:00:24;;;;;;;10.50;9.20;;;10.60;99.90;;;;;;4999661;28;20204;-71
2021/05/26 05:02:50;;;;;;;10.70;9.70;;;10.60;99.90;;;;;;5000863;28;20977;-71
2021/05/26 05:05:15;;;;;;;11.43;10.23;;;10.60;99.90;;;;;;5001379;28;20775;-71
2021/05/26 05:07:42;;;;;;;11.50;10.27;;;10.60;99.90;;;;;;5002693;28;20185;-71
2021/05/26 05:10:08;;;;;;;11.60;10.40;;;10.60;99.90;;;;;;4997991;28;20201;-71
2021/05/26 05:12:33;;;;;;;11.47;10.37;;;10.60;99.90;;;;;;4989685;28;21167;-71
2021/05/26 05:14:59;;;;;;;11.47;10.33;;;10.60;99.90;;;;;;5002821;28;20743;-71
2021/05/26 05:17:24;;;;;;;11.07;10.07;;;10.60;99.90;;;;;;4999009;28;20228;-71
2021/05/26 05:19:50;;;;;;;13.83;10.30;;;10.60;99.90;;;;;;5007296;28;20240;-71
2021/05/26 05:22:16;;;;;;;10.50;9.50;;;10.70;99.90;;;;;;4996283;28;20308;-71
2021/05/26 05:24:42;;;;;;;10.23;9.23;;;10.70;99.90;;;;;;4996502;28;20299;-72
2021/05/26 05:27:07;;;;;;;10.30;9.40;;;10.70;99.90;;;;;;4992360;28;20622;-71
2021/05/26 05:29:33;;;;;;;11.13;9.50;;;10.80;99.90;;;;;;4995533;28;20265;-71
2021/05/26 05:34:26;;;;;;;9.63;8.83;;;10.80;99.90;;;;;;4992856;28;20328;-71
2021/05/26 05:36:52;;;;;;;9.77;8.80;;;10.80;99.90;;;;;;4994107;28;20693;-71
2021/05/26 05:39:17;;;;;;;9.70;8.80;;;10.80;99.90;;;;;;4995184;28;20348;-71
2021/05/26 05:41:45;;;;;;;10.37;9.27;;;10.80;99.90;;;;;;4998630;28;20642;-71
2021/05/26 05:44:10;;;;;;;11.07;10.00;;;10.80;99.90;;;;;;4988266;28;20704;-70
2021/05/26 05:46:36;;;;;;;10.43;9.30;;;10.90;99.90;;;;;;4978307;28;20968;-71
2021/05/26 05:49:01;;;;;;;9.77;8.87;;;10.90;99.90;;;;;;4986456;28;20210;-71
2021/05/26 05:51:27;;;;;;;9.73;8.67;;;10.90;99.90;;;;;;4992285;28;20213;-71
2021/05/26 05:53:53;;;;;;;11.30;10.10;;;10.90;99.90;;;;;;4990517;28;20316;-71
2021/05/26 05:56:18;;;;;;;11.10;9.90;;;11.00;99.90;;;;;;4987447;28;20193;-71
2021/05/26 05:58:44;;;;;;;10.20;9.30;;;11.00;99.90;;;;;;4991156;28;20372;-71
2021/05/26 06:01:09;;;;;;;11.07;10.07;;;11.00;99.90;;;;;;4998507;28;20223;-71
2021/05/26 06:03:35;;;;;;;11.30;10.17;;;11.10;99.90;;;;;;4988612;28;20322;-72
2021/05/26 06:06:01;;;;;;;11.80;10.70;;;11.10;99.90;;;;;;4964770;28;20197;-71
2021/05/26 06:08:26;;;;;;;10.43;9.43;;;11.10;99.90;;;;;;4985313;28;20217;-71
2021/05/26 06:10:52;;;;;;;10.70;9.80;;;11.20;99.90;;;;;;4975641;28;20772;-71
2021/05/26 06:13:18;;;;;;;12.50;10.77;;;11.20;99.90;;;;;;4987701;28;20391;-71
2021/05/26 06:15:43;;;;;;;13.33;10.10;;;11.20;99.90;;;;;;4995881;28;20189;-71
2021/05/26 06:18:09;;;;;;;10.70;9.70;;;11.30;99.90;;;;;;4993108;28;20194;-71
2021/05/26 06:20:34;;;;;;;10.97;9.97;;;11.30;99.90;;;;;;4995975;28;20528;-71
2021/05/26 06:23:00;;;;;;;11.73;10.50;;;11.30;99.90;;;;;;5002693;28;20233;-71
2021/05/26 06:25:26;;;;;;;10.80;9.80;;;11.30;99.90;;;;;;4993348;28;20577;-71
2021/05/26 06:27:52;;;;;;;10.13;9.20;;;11.30;99.90;;;;;;4982410;28;20204;-72
2021/05/26 06:30:18;;;;;;;11.10;8.87;;;11.40;99.90;;;;;;4988260;28;20647;-72
2021/05/26 06:32:44;;;;;;;10.50;9.40;;;11.40;99.90;;;;;;4985775;28;21187;-72
2021/05/26 06:35:10;;;;;;;10.90;9.83;;;11.40;99.90;;;;;;4987371;28;20609;-72
2021/05/26 06:37:36;;;;;;;10.63;9.73;;;11.50;99.90;;;;;;4989176;28;20630;-72
2021/05/26 06:40:05;;;;;;;10.50;9.50;;;11.50;99.90;;;;;;4986737;28;21243;-72
2021/05/26 06:42:33;;;;;;;11.23;10.23;;;11.50;99.90;;;;;;4984415;28;20194;-72
2021/05/26 06:45:01;;;;;;;10.83;9.80;;;11.60;99.90;;;;;;4981291;28;21381;-72
2021/05/26 06:47:27;;;;;;;12.13;10.83;;;11.60;99.90;;;;;;4978102;28;20642;-72
2021/05/26 06:49:52;;;;;;;11.40;10.30;;;11.60;99.90;;;;;;4983503;28;20660;-72
2021/05/26 06:52:20;;;;;;;11.33;10.33;;;11.60;99.90;;;;;;4983589;28;20616;-72
2021/05/26 06:54:46;;;;;;;12.07;10.97;;;11.60;99.90;;;;;;4980184;28;20217;-72
2021/05/26 06:57:12;;;;;;;12.33;11.13;;;11.60;99.90;;;;;;4980234;28;21202;-72
2021/05/26 06:59:37;;;;;;;10.90;9.77;;;11.60;99.90;;;;;;4983136;28;20210;-72
2021/05/26 07:02:03;;;;;;;9.63;8.83;;;11.60;99.90;;;;;;4975462;28;20186;-72
2021/05/26 07:04:28;;;;;;;10.90;9.80;;;11.60;99.90;;;;;;4978142;28;20256;-72
2021/05/26 07:06:57;;;;;;;9.87;8.97;;;11.70;99.90;;;;;;4979249;28;20190;-72
2021/05/26 07:09:22;;;;;;;9.93;9.10;;;11.70;99.90;;;;;;4976955;28;21403;-71
2021/05/26 07:11:48;;;;;;;10.60;9.17;;;11.60;99.90;;;;;;4981699;28;20648;-72
2021/05/26 07:14:14;;;;;;;9.10;8.30;;;11.70;99.90;;;;;;4983518;28;20356;-72
2021/05/26 07:16:39;;;;;;;8.03;7.33;;;11.70;99.90;;;;;;4983825;28;20604;-72
2021/05/26 07:19:07;;;;;;;7.87;7.07;;;11.70;99.90;;;;;;4982799;28;20734;-72
2021/05/26 07:21:33;;;;;;;7.73;7.13;;;11.70;99.90;;;;;;4981795;28;20691;-72
2021/05/26 07:23:59;;;;;;;7.63;7.03;;;11.80;99.90;;;;;;4976522;28;21231;-72
2021/05/26 07:26:24;;;;;;;6.40;5.90;;;11.80;99.90;;;;;;4969408;28;20616;-72
2021/05/26 07:28:50;;;;;;;5.20;4.90;;;11.90;99.90;;;;;;4980825;28;20714;-72
2021/05/26 07:31:19;;;;;;;5.83;5.37;;;11.90;99.90;;;;;;4987310;28;20328;-72
2021/05/26 07:33:45;;;;;;;5.27;4.87;;;12.00;99.90;;;;;;4977748;28;20729;-72
2021/05/26 07:36:11;;;;;;;5.87;5.47;;;12.00;99.90;;;;;;4986610;28;21024;-72
2021/05/26 07:38:37;;;;;;;6.03;5.53;;;12.10;99.90;;;;;;4992524;28;20625;-73
2021/05/26 07:41:03;;;;;;;4.73;4.40;;;12.20;99.90;;;;;;4981749;28;21304;-72
2021/05/26 07:43:31;;;;;;;6.00;5.20;;;12.20;99.90;;;;;;4978604;28;20216;-72
2021/05/26 07:45:57;;;;;;;5.60;5.20;;;12.30;99.90;;;;;;4987701;28;20193;-72
2021/05/26 07:48:22;;;;;;;5.53;5.03;;;12.20;99.90;;;;;;4981781;28;20656;-72
2021/05/26 07:50:48;;;;;;;6.00;5.50;;;12.30;99.90;;;;;;4990073;28;20199;-72
2021/05/26 07:53:13;;;;;;;5.90;5.40;;;12.30;99.90;;;;;;4983346;28;20243;-72
2021/05/26 07:55:39;;;;;;;6.53;6.03;;;12.30;99.90;;;;;;4987325;28;20650;-71
2021/05/26 07:58:04;;;;;;;5.80;5.27;;;12.30;99.90;;;;;;4982765;28;23602;-72
2021/05/26 08:00:30;;;;;;;7.60;6.87;;;12.30;99.90;;;;;;4994597;28;20201;-72
2021/05/26 08:02:57;;;;;;;7.33;6.73;;;12.20;99.90;;;;;;4981946;28;20646;-72
2021/05/26 08:05:24;;;;;;;7.93;7.23;;;12.20;99.90;;;;;;4981559;28;20190;-72
2021/05/26 08:07:50;;;;;;;9.50;8.70;;;12.20;99.90;;;;;;4987936;28;21093;-72
2021/05/26 08:10:16;;;;;;;10.17;9.27;;;12.10;99.90;;;;;;4987222;28;20760;-72
2021/05/26 08:12:41;;;;;;;11.63;10.47;;;12.10;99.90;;;;;;4985896;28;20707;-72
2021/05/26 08:15:09;;;;;;;12.17;10.97;;;12.10;99.90;;;;;;4981705;28;22525;-72
2021/05/26 08:17:35;;;;;;;12.70;11.40;;;12.00;99.90;;;;;;4984002;28;20182;-72
2021/05/26 08:20:05;;;;;;;12.77;11.57;;;12.00;99.90;;;;;;4986988;28;22323;-72
2021/05/26 08:22:31;;;;;;;15.47;13.97;;;12.00;99.90;;;;;;4985627;28;20285;-72
2021/05/26 08:24:56;;;;;;;16.33;14.67;;;11.90;99.90;;;;;;4979077;28;20722;-72
2021/05/26 08:27:22;;;;;;;17.30;15.57;;;11.80;99.90;;;;;;4993505;28;21169;-72
2021/05/26 08:29:48;;;;;;;14.93;13.43;;;11.80;99.90;;;;;;4979480;28;20205;-72
2021/05/26 08:32:13;;;;;;;14.70;13.30;;;11.80;99.90;;;;;;4986117;28;20217;-72
2021/05/26 08:34:40;;;;;;;15.00;13.60;;;11.80;99.90;;;;;;4981715;28;20276;-72
2021/05/26 08:37:06;;;;;;;14.97;13.57;;;11.70;99.90;;;;;;4980272;28;20185;-72
2021/05/26 08:39:35;;;;;;;16.23;14.53;;;11.60;99.90;;;;;;4986010;28;20783;-72
2021/05/26 08:42:02;;;;;;;16.83;14.97;;;11.50;99.90;;;;;;4981577;28;20185;-72
2021/05/26 08:44:28;;;;;;;19.33;17.00;;;11.50;99.90;;;;;;4978728;28;20697;-72
2021/05/26 08:46:54;;;;;;;18.57;16.77;;;11.60;99.90;;;;;;4983574;28;20632;-72
2021/05/26 08:49:20;;;;;;;20.93;18.47;;;11.60;99.90;;;;;;4987131;28;20651;-72
2021/05/26 08:51:47;;;;;;;19.47;17.37;;;11.60;99.90;;;;;;4968790;28;20693;-72
2021/05/26 08:54:13;;;;;;;24.60;19.97;;;11.60;99.90;;;;;;4998477;28;20664;-72
2021/05/26 08:56:39;;;;;;;27.43;20.83;;;11.60;99.90;;;;;;4986380;28;20643;-72
2021/05/26 08:59:04;;;;;;;23.67;21.17;;;11.60;99.90;;;;;;4991793;28;21223;-72
2021/05/26 09:01:30;;;;;;;25.33;21.63;;;11.70;99.90;;;;;;4984422;28;20194;-72
2021/05/26 09:04:16;;;;;;;22.70;19.77;;;11.80;99.90;;;;;;4982045;28;20229;-72
2021/05/26 09:06:48;;;;;;;21.33;19.07;;;11.70;99.90;;;;;;4979613;28;20694;-72
2021/05/26 09:09:14;;;;;;;22.10;19.00;;;11.80;99.90;;;;;;4990069;28;20712;-72
2021/05/26 09:11:43;;;;;;;21.73;19.30;;;11.80;99.90;;;;;;4989884;28;20728;-72
2021/05/26 09:14:13;;;;;;;19.97;17.87;;;11.90;99.90;;;;;;4991055;28;20270;-72
2021/05/26 09:16:39;;;;;;;19.77;16.20;;;11.90;99.90;;;;;;4989680;28;21027;-72
2021/05/26 09:19:07;;;;;;;17.50;15.70;;;12.00;99.90;;;;;;4982211;28;20640;-72
2021/05/26 09:21:50;;;;;;;18.53;16.00;;;12.00;99.90;;;;;;4990300;28;20640;-73
2021/05/26 09:24:19;;;;;;;18.13;16.33;;;12.00;99.90;;;;;;4988354;28;20636;-72
2021/05/26 09:27:02;;;;;;;18.07;16.33;;;12.10;99.90;;;;;;4987867;28;22000;-72
2021/05/26 09:29:33;;;;;;;17.77;15.97;;;12.10;99.90;;;;;;4993443;28;20652;-73
2021/05/26 09:32:25;;;;;;;17.07;15.30;;;12.10;99.90;;;;;;4990409;28;20707;-72
2021/05/26 09:34:52;;;;;;;15.97;14.27;;;12.10;99.90;;;;;;4984291;28;20672;-72
2021/05/26 09:37:23;;;;;;;15.73;13.90;;;12.20;99.90;;;;;;4985870;28;20650;-72
2021/05/26 09:39:49;;;;;;;14.13;12.87;;;12.20;99.90;;;;;;4995910;28;20731;-72
2021/05/26 09:42:24;;;;;;;15.67;13.43;;;12.30;99.90;;;;;;4993945;28;20704;-72
2021/05/26 09:45:26;;;;;;;14.27;12.87;;;12.40;99.90;;;;;;4983369;28;20344;-72
2021/05/26 09:47:54;;;;;;;15.70;13.50;;;12.40;99.90;;;;;;4985535;28;20603;-73
2021/05/26 09:50:26;;;;;;;13.93;12.63;;;12.50;99.90;;;;;;4986639;28;20641;-72
2021/05/26 09:53:04;;;;;;;12.17;11.03;;;12.50;99.90;;;;;;4985896;28;20977;-72
2021/05/26 09:55:37;;;;;;;11.57;9.97;;;12.50;99.90;;;;;;4989033;28;20647;-73
2021/05/26 09:58:05;;;;;;;11.87;10.60;;;12.60;99.90;;;;;;4997353;28;20612;-72
2021/05/26 10:00:32;;;;;;;12.83;11.67;;;12.60;99.90;;;;;;4994866;28;20620;-72
2021/05/26 10:02:58;;;;;;;12.10;10.90;;;12.60;99.90;;;;;;4984922;28;20964;-73
2021/05/26 10:05:25;;;;;;;9.80;8.90;;;12.60;99.90;;;;;;4996243;28;20623;-72
2021/05/26 10:07:58;;;;;;;11.43;10.33;;;12.60;99.90;;;;;;4995356;28;20617;-72
2021/05/26 10:10:29;;;;;;;11.17;10.07;;;12.50;99.90;;;;;;4997191;28;20633;-72
2021/05/26 10:13:03;;;;;;;14.10;12.80;;;12.60;99.90;;;;;;4977813;28;20612;-72
2021/05/26 10:15:29;;;;;;;14.50;13.20;;;12.60;99.90;;;;;;4981608;28;20624;-72
2021/05/26 10:17:56;;;;;;;14.17;12.93;;;12.60;99.90;;;;;;4996975;28;20609;-73
2021/05/26 10:20:34;;;;;;;15.30;12.50;;;12.60;99.90;;;;;;4981873;28;20716;-72
2021/05/26 10:23:01;;;;;;;14.50;13.03;;;12.70;99.90;;;;;;4986120;28;20617;-72
2021/05/26 10:25:28;;;;;;;13.43;12.23;;;12.70;99.90;;;;;;4982807;28;21075;-72
2021/05/26 10:27:56;;;;;;;13.10;11.80;;;12.80;99.90;;;;;;4980744;28;21158;-72
2021/05/26 10:30:27;;;;;;;12.30;11.13;;;12.80;99.90;;;;;;4986509;28;20965;-75
2021/05/26 10:33:01;;;;;;;11.90;10.80;;;12.90;99.90;;;;;;4974317;28;21346;-72
2021/05/26 10:35:29;;;;;;;12.43;11.10;;;12.90;99.90;;;;;;4990286;28;20615;-73
2021/05/26 10:38:06;;;;;;;10.40;9.50;;;13.00;99.90;;;;;;4986884;28;21269;-71
2021/05/26 10:40:34;;;;;;;12.37;11.10;;;13.20;99.90;;;;;;4991778;28;20608;-72
2021/05/26 10:43:15;;;;;;;8.13;7.40;;;13.30;99.90;;;;;;4987214;28;20670;-73
2021/05/26 10:45:42;;;;;;;8.03;7.23;;;13.30;99.90;;;;;;4993684;28;21117;-72
2021/05/26 10:48:08;;;;;;;7.63;7.00;;;13.30;99.90;;;;;;4996761;28;20682;-72
2021/05/26 10:50:55;;;;;;;7.90;6.83;;;13.40;99.90;;;;;;4992521;28;20640;-73
2021/05/26 10:53:23;;;;;;;8.00;6.87;;;13.40;99.90;;;;;;4991331;28;20634;-72
2021/05/26 10:55:53;;;;;;;6.07;5.60;;;13.50;99.90;;;;;;4985668;28;20657;-73
2021/05/26 10:58:26;;;;;;;6.40;5.90;;;13.50;99.90;;;;;;4995428;28;20757;-73
2021/05/26 11:00:58;;;;;;;7.20;5.90;;;13.60;99.90;;;;;;4981398;28;20697;-73
2021/05/26 11:03:44;;;;;;;6.33;5.53;;;13.70;99.90;;;;;;4980091;28;20729;-73
2021/05/26 11:06:10;;;;;;;6.30;5.70;;;13.80;99.90;;;;;;4974493;28;20650;-73
2021/05/26 11:08:56;;;;;;;6.30;5.80;;;13.90;99.90;;;;;;4981773;28;20644;-73
2021/05/26 11:11:24;;;;;;;6.30;5.80;;;13.90;99.90;;;;;;4969907;28;20213;-73
2021/05/26 11:14:14;;;;;;;5.13;4.70;;;14.00;99.90;;;;;;4967432;28;20672;-73
2021/05/26 11:16:46;;;;;;;5.40;4.90;;;14.00;99.90;;;;;;4970153;28;20613;-73
2021/05/26 11:19:14;;;;;;;6.30;5.70;;;14.00;99.90;;;;;;4969576;28;20645;-72
2021/05/26 11:21:51;;;;;;;5.37;4.97;;;14.00;99.90;;;;;;4974998;28;20621;-73
2021/05/26 11:24:17;;;;;;;6.07;5.50;;;14.00;99.90;;;;;;4968433;28;20772;-73
2021/05/26 11:26:43;;;;;;;5.00;4.67;;;14.00;99.90;;;;;;4977148;28;20663;-71
2021/05/26 11:29:09;;;;;;;6.53;5.70;;;14.00;99.90;;;;;;4983739;28;21406;-72
2021/05/26 11:31:41;;;;;;;5.97;4.90;;;14.00;99.90;;;;;;5075903;22;20224;-93
2021/05/26 11:34:11;;;;;;;5.03;4.63;;;13.90;99.90;;;;;;5049488;28;20197;-95
2021/05/26 11:36:49;;;;;;;4.57;4.27;;;13.90;99.90;;;;;;5051309;28;20646;-93
2021/05/26 11:39:29;;;;;;;4.37;4.07;;;14.10;99.90;;;;;;5059897;23;20634;-69
2021/05/26 11:42:15;;;;;;;4.63;4.00;;;13.90;99.90;;;;;;5012421;28;20644;-69
2021/05/26 11:45:02;;;;;;;4.13;3.80;;;14.00;99.90;;;;;;5010808;28;20630;-71
2021/05/26 11:47:50;;;;;;;5.27;4.77;;;14.00;99.90;;;;;;5022984;28;20618;-68
2021/05/26 11:50:15;;;;;;;5.10;4.77;;;14.10;99.90;;;;;;5026815;28;22123;-71
2021/05/26 11:52:42;;;;;;;5.03;4.63;;;14.00;99.90;;;;;;5017648;28;20658;-70
2021/05/26 11:55:09;;;;;;;5.13;4.73;;;14.00;99.90;;;;;;5015682;28;20280;-70
2021/05/26 11:57:36;;;;;;;5.17;4.77;;;14.00;99.90;;;;;;5017724;28;20618;-70
2021/05/26 12:00:11;;;;;;;4.80;4.50;;;13.90;99.90;;;;;;5010281;28;20653;-68
2021/05/26 12:02:55;;;;;;;5.50;5.10;;;13.90;99.90;;;;;;5011329;28;20622;-69
2021/05/26 12:05:43;;;;;;;5.67;5.17;;;13.80;99.90;;;;;;4980037;28;20697;-70
2021/05/26 12:08:14;;;;;;;5.60;5.10;;;13.90;99.90;;;;;;5006952;28;20698;-70
2021/05/26 12:10:40;;;;;;;5.63;5.13;;;14.10;99.90;;;;;;4998301;28;20657;-70
2021/05/26 12:13:08;;;;;;;6.70;4.70;;;14.10;99.90;;;;;;4991958;28;20681;-71
2021/05/26 12:15:34;;;;;;;5.10;4.73;;;14.10;99.90;;;;;;5004048;28;20777;-71
2021/05/26 12:18:00;;;;;;;5.27;4.87;;;14.30;99.90;;;;;;5023211;28;20623;-70
2021/05/26 12:20:26;;;;;;;6.63;6.03;;;14.30;99.90;;;;;;5019034;28;20188;-70
2021/05/26 12:22:53;;;;;;;6.00;5.50;;;14.30;99.90;;;;;;5025314;28;20965;-70
2021/05/26 12:25:19;;;;;;;5.50;5.10;;;14.40;99.90;;;;;;5022231;28;20184;-70
2021/05/26 12:27:48;;;;;;;6.10;5.43;;;14.30;99.90;;;;;;5019424;28;23892;-70
2021/05/26 12:30:34;;;;;;;5.93;5.43;;;14.30;99.90;;;;;;5023233;28;20638;-69
2021/05/26 12:33:17;;;;;;;5.43;4.97;;;14.40;99.90;;;;;;5018097;28;20627;-70
2021/05/26 12:35:43;;;;;;;6.07;5.00;;;14.50;99.90;;;;;;5020766;28;20614;-68
2021/05/26 12:38:20;;;;;;;5.23;4.83;;;14.60;99.90;;;;;;5030583;28;20947;-70
2021/05/26 12:40:48;;;;;;;5.80;5.27;;;14.70;99.90;;;;;;5034896;28;20629;-70
2021/05/26 12:43:31;;;;;;;6.10;4.70;;;14.80;99.90;;;;;;5024493;28;20642;-70
2021/05/26 12:45:59;;;;;;;6.07;5.47;;;14.90;99.90;;;;;;5029215;28;20626;-68